West Chester, Iowa
Current Conditions -  °F | °C
As of 1:15 PM on Saturday 20 Dec 2014 (Local Time) from KAWG Reporting Station
Haze Haze  
Wind Chill: 28°   Ceiling: 900
Heat Index: 34°   Visibility: 3mi
Dew Point: 34°   Wind: 7mph
Humidity: 100%   Direction: 150°SSE
Pressure: 30.18"   Gusts: NA
Location:  41.34°N, 91.82°W
Report Text: KAWG 201915Z AUTO 15006KT 3SM BR OVC009 01/01 A3018 RMK AO2
Loading
Personal Weather Stations






























Interactive Weather Map New forecast layout! Learn more

10-Day Weather Forecast

Advertisements
Track Severe Weather on mobile